Wisdom, Missouri
Current Conditions -  °F | °C
As of 5:35 AM on Wednesday 26 Nov 2014 (Local Time) from KGLY Reporting Station
Drizzle Drizzle  
Wind Chill: 36°   Ceiling: 4100
Heat Index: 36°   Visibility: 10mi
Dew Point: 30°   Wind: 0mph
Humidity: 81%   Direction: NA
Pressure: 30"   Gusts: NA
Location:  38.3166°N, 93.2711°W
Report Text: KGLY 261135Z AUTO 00000KT 10SM -DZ FEW017 SCT022 BKN041 02/M01 A3000 RMK AO2
Loading
Personal Weather Stations






























Interactive Weather Map New forecast layout! Learn more

10-Day Weather Forecast

Advertisements
Track Severe Weather on mobile